createdAt,value
2022-11-20T00:00:41.625Z,84.27
2022-11-20T00:01:43.245Z,84.45
2022-11-20T00:02:44.847Z,84.33
2022-11-20T00:03:47.358Z,84.57
2022-11-20T00:04:49.038Z,84.42
2022-11-20T00:05:50.565Z,84.66
2022-11-20T00:06:52.135Z,84.43
2022-11-20T00:07:53.641Z,84.74
2022-11-20T00:08:57.481Z,85.13
2022-11-20T00:09:59.016Z,85.02
2022-11-20T00:11:21.270Z,85.32
2022-11-20T00:12:22.822Z,85.29
2022-11-20T00:13:24.551Z,85.74
2022-11-20T00:14:26.090Z,85.58
2022-11-20T00:15:27.630Z,85.27
2022-11-20T00:16:32.140Z,85.62
2022-11-20T00:17:33.698Z,85.71
2022-11-20T00:18:36.180Z,85.66
2022-11-20T00:19:37.741Z,85.26
2022-11-20T00:20:39.378Z,85.60
2022-11-20T00:21:40.892Z,85.02
2022-11-20T00:22:42.490Z,85.17
2022-11-20T00:23:44.205Z,85.04
2022-11-20T00:24:45.753Z,85.26
2022-11-20T00:25:47.251Z,84.77
2022-11-20T00:26:48.825Z,84.95
2022-11-20T00:27:50.442Z,85.13
2022-11-20T00:28:56.903Z,84.88
2022-11-20T00:29:58.526Z,85.23
2022-11-20T00:31:04.270Z,85.20
2022-11-20T00:32:05.834Z,85.41
2022-11-20T00:33:07.382Z,85.29
2022-11-20T00:34:10.476Z,85.24
2022-11-20T00:35:12.087Z,85.03
2022-11-20T00:36:19.304Z,85.42
2022-11-20T00:37:20.851Z,85.05
2022-11-20T00:38:22.410Z,85.78
2022-11-20T00:39:24.084Z,85.74
2022-11-20T00:40:25.727Z,85.86
2022-11-20T00:41:29.035Z,85.65
2022-11-20T00:42:30.583Z,86.18
2022-11-20T00:43:32.177Z,85.77
2022-11-20T00:44:33.699Z,85.39
2022-11-20T00:45:35.270Z,85.13
2022-11-20T00:46:37.419Z,85.19
2022-11-20T00:47:38.926Z,85.17
2022-11-20T00:48:40.438Z,84.96
2022-11-20T00:49:42.008Z,84.82
2022-11-20T00:50:43.628Z,84.97
2022-11-20T00:51:45.166Z,85.06
2022-11-20T00:52:46.695Z,85.60
2022-11-20T00:53:48.645Z,85.59
2022-11-20T00:54:50.166Z,85.69
2022-11-20T00:56:00.098Z,85.93
2022-11-20T00:57:01.627Z,85.97
2022-11-20T00:58:04.604Z,86.54
2022-11-20T00:59:06.643Z,86.78
2022-11-20T01:00:08.716Z,86.73
2022-11-20T01:01:17.750Z,86.09
2022-11-20T01:02:19.522Z,86.69
2022-11-20T01:03:26.643Z,86.26
2022-11-20T01:04:28.714Z,86.67
2022-11-20T01:05:30.231Z,86.37
2022-11-20T01:06:37.174Z,86.30
2022-11-20T01:07:39.028Z,86.66
2022-11-20T01:08:41.653Z,86.41
2022-11-20T01:09:43.214Z,86.68
2022-11-20T01:10:44.782Z,86.33
2022-11-20T01:11:46.566Z,86.57
2022-11-20T01:13:08.069Z,86.31
2022-11-20T01:14:15.987Z,86.63
2022-11-20T01:15:17.557Z,86.36
2022-11-20T01:16:28.589Z,85.87
2022-11-20T01:17:31.757Z,86.16
2022-11-20T01:18:33.615Z,86.26
2022-11-20T01:19:35.274Z,85.91
2022-11-20T01:20:37.701Z,86.00
2022-11-20T01:21:41.917Z,86.09
2022-11-20T01:22:43.455Z,86.54
2022-11-20T01:23:45.870Z,86.27
2022-11-20T01:24:47.469Z,85.76
2022-11-20T01:25:49.003Z,85.19
2022-11-20T01:26:51.942Z,84.68
2022-11-20T01:27:53.483Z,85.14
2022-11-20T01:28:56.303Z,85.00
2022-11-20T01:30:01.101Z,84.34
2022-11-20T01:31:11.983Z,84.21
2022-11-20T01:32:13.533Z,84.14
2022-11-20T01:33:15.118Z,83.74
2022-11-20T01:34:19.435Z,84.01
2022-11-20T01:35:21.255Z,83.11
2022-11-20T01:36:24.719Z,83.09
2022-11-20T01:37:26.235Z,82.38
2022-11-20T01:38:27.798Z,82.12
2022-11-20T01:39:29.449Z,82.35
2022-11-20T01:40:30.967Z,81.75
2022-11-20T01:41:52.477Z,81.49
2022-11-20T01:43:37.556Z,81.34
2022-11-20T01:44:50.986Z,81.46
2022-11-20T01:46:19.582Z,81.42
2022-11-20T01:47:35.536Z,80.88
2022-11-20T01:48:43.787Z,80.46
2022-11-20T01:49:53.693Z,80.48
2022-11-20T01:50:55.741Z,80.58
2022-11-20T01:52:03.502Z,80.93
2022-11-20T01:53:12.529Z,79.97
2022-11-20T01:54:18.367Z,80.16
2022-11-20T01:55:26.906Z,80.54
2022-11-20T01:56:32.339Z,80.44
2022-11-20T01:57:36.667Z,79.98
2022-11-20T01:58:42.701Z,80.15
2022-11-20T01:59:50.732Z,79.68
2022-11-20T02:00:52.630Z,79.48
2022-11-20T02:01:54.529Z,79.65
2022-11-20T02:03:03.117Z,79.46
2022-11-20T02:04:04.914Z,79.96
2022-11-20T02:05:33.982Z,80.01
2022-11-20T02:06:46.777Z,80.03
2022-11-20T02:07:49.625Z,79.98
2022-11-20T02:08:53.317Z,80.10
2022-11-20T02:09:58.717Z,79.93
2022-11-20T02:11:00.611Z,79.91
2022-11-20T02:12:02.529Z,79.91
2022-11-20T02:13:23.581Z,79.59
2022-11-20T02:14:26.225Z,79.80
2022-11-20T02:15:30.427Z,79.48
2022-11-20T02:16:37.987Z,79.52
2022-11-20T02:17:39.676Z,79.26
2022-11-20T02:18:42.113Z,79.49
2022-11-20T02:19:43.669Z,79.59
2022-11-20T02:20:47.751Z,79.45
2022-11-20T02:22:01.269Z,79.71
2022-11-20T02:23:32.435Z,79.43
2022-11-20T02:24:34.769Z,79.40
2022-11-20T02:25:37.916Z,79.41
2022-11-20T02:26:45.871Z,79.35
2022-11-20T02:27:47.877Z,79.18
2022-11-20T02:28:49.915Z,79.30
2022-11-20T02:30:02.974Z,78.97
2022-11-20T02:31:04.637Z,78.87
2022-11-20T02:32:06.701Z,79.24
2022-11-20T02:33:08.275Z,78.82
2022-11-20T02:34:10.386Z,78.74
2022-11-20T02:35:20.800Z,78.76
2022-11-20T02:36:22.821Z,78.28
2022-11-20T02:37:31.525Z,78.30
2022-11-20T02:38:33.072Z,78.25
2022-11-20T02:39:34.673Z,78.40
2022-11-20T02:40:36.272Z,78.66
2022-11-20T02:41:38.760Z,77.88
2022-11-20T02:42:40.759Z,78.00
2022-11-20T02:43:42.402Z,78.38
2022-11-20T02:44:44.024Z,77.93
2022-11-20T02:45:45.535Z,77.99
2022-11-20T02:46:47.409Z,78.12
2022-11-20T02:47:48.964Z,78.19
2022-11-20T02:48:50.490Z,77.88
2022-11-20T02:49:51.997Z,77.98
2022-11-20T02:50:53.542Z,77.90
2022-11-20T02:51:55.136Z,78.17
2022-11-20T02:52:56.717Z,78.35
2022-11-20T02:53:58.553Z,78.40
2022-11-20T02:55:00.123Z,78.18
2022-11-20T02:56:01.668Z,78.19
2022-11-20T02:57:03.325Z,78.16
2022-11-20T02:58:04.850Z,78.54
2022-11-20T02:59:06.946Z,78.43
2022-11-20T03:00:09.548Z,78.72
2022-11-20T03:01:11.203Z,78.82
2022-11-20T03:02:12.884Z,78.81
2022-11-20T03:03:14.441Z,78.62
2022-11-20T03:04:16.055Z,78.53
2022-11-20T03:05:17.758Z,78.15
2022-11-20T03:06:19.283Z,78.02
2022-11-20T03:07:20.857Z,78.02
2022-11-20T03:08:22.414Z,78.33
2022-11-20T03:09:24.177Z,77.82
2022-11-20T03:10:26.206Z,78.25
2022-11-20T03:11:27.904Z,78.67
2022-11-20T03:12:29.434Z,78.62
2022-11-20T03:13:30.982Z,78.79
2022-11-20T03:14:32.737Z,79.05
2022-11-20T03:15:34.310Z,78.69
2022-11-20T03:16:35.853Z,78.77
2022-11-20T03:17:37.537Z,79.35
2022-11-20T03:18:40.167Z,79.14
2022-11-20T03:19:41.683Z,79.21
2022-11-20T03:20:43.244Z,79.60
2022-11-20T03:21:44.854Z,79.49
2022-11-20T03:22:46.395Z,79.44
2022-11-20T03:23:48.085Z,79.07
2022-11-20T03:24:49.607Z,79.46
2022-11-20T03:25:51.148Z,79.29
2022-11-20T03:26:52.753Z,79.54
2022-11-20T03:27:55.261Z,79.53
2022-11-20T03:28:59.654Z,79.47
2022-11-20T03:30:01.627Z,79.91
2022-11-20T03:31:09.373Z,80.02
2022-11-20T03:32:11.046Z,79.83
2022-11-20T03:33:12.572Z,79.60
2022-11-20T03:34:14.557Z,79.41
2022-11-20T03:35:16.105Z,79.52
2022-11-20T03:36:20.030Z,79.54
2022-11-20T03:37:21.629Z,79.86
2022-11-20T03:38:23.127Z,80.01
2022-11-20T03:39:24.701Z,79.47
2022-11-20T03:40:26.298Z,79.45
2022-11-20T03:41:30.508Z,79.91
2022-11-20T03:42:47.275Z,79.99
2022-11-20T03:43:54.694Z,80.12
2022-11-20T03:44:56.550Z,79.94
2022-11-20T03:45:58.537Z,79.87
2022-11-20T03:47:00.076Z,80.27
2022-11-20T03:48:01.599Z,79.76
2022-11-20T03:49:03.869Z,79.37
2022-11-20T03:50:05.925Z,79.57
2022-11-20T03:51:09.304Z,80.41
2022-11-20T03:52:10.885Z,79.65
2022-11-20T03:53:12.399Z,79.58
2022-11-20T03:54:13.965Z,79.75
2022-11-20T03:55:15.498Z,79.48
2022-11-20T03:56:18.989Z,79.49
2022-11-20T03:57:20.546Z,79.55
2022-11-20T03:58:22.070Z,79.84
2022-11-20T03:59:23.791Z,79.99
2022-11-20T04:00:25.411Z,80.12
2022-11-20T04:01:30.339Z,80.31
2022-11-20T04:02:31.943Z,80.32
2022-11-20T04:03:33.541Z,80.87
2022-11-20T04:04:35.128Z,80.59
2022-11-20T04:05:36.770Z,80.64
2022-11-20T04:06:39.027Z,80.81
2022-11-20T04:07:40.666Z,80.57
2022-11-20T04:08:42.722Z,80.44
2022-11-20T04:09:44.281Z,80.11
2022-11-20T04:10:45.803Z,80.31
2022-11-20T04:11:47.486Z,80.11
2022-11-20T04:12:49.011Z,80.42
2022-11-20T04:13:56.459Z,80.21
2022-11-20T04:14:58.037Z,81.00
2022-11-20T04:15:59.563Z,80.76
2022-11-20T04:17:01.082Z,81.12
2022-11-20T04:18:02.598Z,81.11
2022-11-20T04:19:07.162Z,80.94
2022-11-20T04:20:09.187Z,80.80
2022-11-20T04:21:12.016Z,81.04
2022-11-20T04:22:13.606Z,81.27
2022-11-20T04:23:15.102Z,80.91
2022-11-20T04:24:16.750Z,80.22
2022-11-20T04:25:18.339Z,80.09
2022-11-20T04:26:21.050Z,80.53
2022-11-20T04:27:22.639Z,80.06
2022-11-20T04:28:24.125Z,80.05
2022-11-20T04:29:25.636Z,80.11
2022-11-20T04:30:27.189Z,79.72
2022-11-20T04:31:32.574Z,79.79
2022-11-20T04:32:34.146Z,79.53
2022-11-20T04:33:37.317Z,79.41
2022-11-20T04:34:38.914Z,79.51
2022-11-20T04:35:40.442Z,79.75
2022-11-20T04:36:42.036Z,79.90
2022-11-20T04:37:43.627Z,79.72
2022-11-20T04:38:46.047Z,79.90
2022-11-20T04:39:47.599Z,79.95
2022-11-20T04:40:49.158Z,80.07
2022-11-20T04:42:10.745Z,79.89
2022-11-20T04:43:12.293Z,80.40
2022-11-20T04:44:13.832Z,80.16
2022-11-20T04:45:15.388Z,80.21
2022-11-20T04:46:18.607Z,80.30
2022-11-20T04:47:20.217Z,80.44
2022-11-20T04:48:22.382Z,80.50
2022-11-20T04:49:24.078Z,80.36
2022-11-20T04:50:25.840Z,80.46
2022-11-20T04:51:28.301Z,80.89
2022-11-20T04:52:29.865Z,80.59
2022-11-20T04:53:31.650Z,80.33
2022-11-20T04:54:33.201Z,79.78
2022-11-20T04:55:34.802Z,80.33
2022-11-20T04:56:36.428Z,80.26
2022-11-20T04:57:37.952Z,79.87
2022-11-20T04:58:40.069Z,79.79
2022-11-20T04:59:41.704Z,79.69
2022-11-20T05:00:43.596Z,79.78
2022-11-20T05:01:45.251Z,80.23
2022-11-20T05:02:46.838Z,80.34
2022-11-20T05:03:48.399Z,80.06
2022-11-20T05:04:50.096Z,80.48
2022-11-20T05:05:51.633Z,80.57
2022-11-20T05:06:53.165Z,80.74
2022-11-20T05:07:57.395Z,80.68
2022-11-20T05:08:59.351Z,80.74
2022-11-20T05:10:00.874Z,80.51
2022-11-20T05:11:11.745Z,80.57
2022-11-20T05:12:13.313Z,81.27
2022-11-20T05:13:14.854Z,81.18
2022-11-20T05:14:16.503Z,81.46
2022-11-20T05:15:18.416Z,81.60
2022-11-20T05:16:24.610Z,81.39
2022-11-20T05:17:26.556Z,81.67
2022-11-20T05:18:28.075Z,80.72
2022-11-20T05:19:29.599Z,80.74
2022-11-20T05:20:31.463Z,81.05
2022-11-20T05:21:33.453Z,80.32
2022-11-20T05:22:35.018Z,80.17
2022-11-20T05:23:37.113Z,80.38
2022-11-20T05:24:38.725Z,80.62
2022-11-20T05:25:40.384Z,80.16
2022-11-20T05:26:42.034Z,80.28
2022-11-20T05:27:43.727Z,79.68
2022-11-20T05:28:45.790Z,79.76
2022-11-20T05:29:47.326Z,79.68
2022-11-20T05:30:49.663Z,79.45
2022-11-20T05:31:51.198Z,79.46
2022-11-20T05:32:52.810Z,79.56
2022-11-20T05:33:54.760Z,79.97
2022-11-20T05:34:56.334Z,79.36
2022-11-20T05:36:00.808Z,79.11
2022-11-20T05:37:03.471Z,79.43
2022-11-20T05:38:04.975Z,79.29
2022-11-20T05:39:06.645Z,79.71
2022-11-20T05:40:08.892Z,79.64
2022-11-20T05:41:18.896Z,78.71
2022-11-20T05:42:33.147Z,78.87
2022-11-20T05:43:39.858Z,78.91
2022-11-20T05:44:41.390Z,78.85
2022-11-20T05:45:43.343Z,78.65
2022-11-20T05:46:44.865Z,78.53
2022-11-20T05:47:46.462Z,78.30
2022-11-20T05:48:48.771Z,78.07
2022-11-20T05:49:50.380Z,78.81
2022-11-20T05:50:51.963Z,79.46
2022-11-20T05:51:53.483Z,78.71
2022-11-20T05:52:55.171Z,79.89
2022-11-20T05:53:59.931Z,80.19
2022-11-20T05:55:01.960Z,80.62
2022-11-20T05:56:12.062Z,80.93
2022-11-20T05:57:13.619Z,81.46
2022-11-20T05:58:15.172Z,80.67
2022-11-20T05:59:16.690Z,81.26
2022-11-20T06:00:18.483Z,81.63
2022-11-20T06:01:21.414Z,81.63
2022-11-20T06:02:23.024Z,80.41
2022-11-20T06:03:24.822Z,81.17
2022-11-20T06:04:26.499Z,81.78
2022-11-20T06:05:28.578Z,81.74
2022-11-20T06:06:30.165Z,81.01
2022-11-20T06:07:31.774Z,81.51
2022-11-20T06:08:33.788Z,82.16
2022-11-20T06:09:35.364Z,81.79
2022-11-20T06:10:36.903Z,81.86
2022-11-20T06:11:39.570Z,83.09
2022-11-20T06:12:41.257Z,83.19
2022-11-20T06:13:43.393Z,83.84
2022-11-20T06:14:44.962Z,83.27
2022-11-20T06:15:54.575Z,83.44
2022-11-20T06:16:57.536Z,82.64
2022-11-20T06:17:59.963Z,84.22
2022-11-20T06:19:01.498Z,84.21
2022-11-20T06:20:03.474Z,84.82
2022-11-20T06:21:08.528Z,85.53
2022-11-20T06:22:10.088Z,85.19
2022-11-20T06:23:11.856Z,86.03
2022-11-20T06:24:13.490Z,84.63
2022-11-20T06:25:15.219Z,85.03
2022-11-20T06:26:22.623Z,86.55
2022-11-20T06:27:24.191Z,87.38
2022-11-20T06:28:25.844Z,86.08
2022-11-20T06:29:31.416Z,88.33
2022-11-20T06:30:36.195Z,86.56
2022-11-20T06:31:38.806Z,86.38
2022-11-20T06:32:40.497Z,87.16
2022-11-20T06:33:43.576Z,88.34
2022-11-20T06:34:45.147Z,88.45
2022-11-20T06:35:46.716Z,88.19
2022-11-20T06:36:48.322Z,87.73
2022-11-20T06:37:50.008Z,88.81
2022-11-20T06:38:51.719Z,88.50
2022-11-20T06:39:53.316Z,88.48
2022-11-20T06:40:55.243Z,88.07
2022-11-20T06:41:59.052Z,87.55
2022-11-20T06:43:00.954Z,87.83
2022-11-20T06:44:04.271Z,87.97
2022-11-20T06:45:06.312Z,88.25
2022-11-20T06:46:09.947Z,87.97
2022-11-20T06:47:11.461Z,88.41
2022-11-20T06:48:13.003Z,87.73
2022-11-20T06:49:14.541Z,87.07
2022-11-20T06:50:16.202Z,87.04
2022-11-20T06:51:18.265Z,87.34
2022-11-20T06:52:19.827Z,87.30
2022-11-20T06:53:22.743Z,87.23
2022-11-20T06:54:24.255Z,87.75
2022-11-20T06:55:25.791Z,86.85
2022-11-20T06:56:27.359Z,85.48
2022-11-20T06:57:31.358Z,84.80
2022-11-20T06:58:35.024Z,84.98
2022-11-20T06:59:36.545Z,86.45
2022-11-20T07:00:38.098Z,85.91
2022-11-20T07:01:39.642Z,85.30
2022-11-20T07:02:41.218Z,84.59
2022-11-20T07:03:43.476Z,84.98
2022-11-20T07:04:45.010Z,85.15
2022-11-20T07:05:47.095Z,83.81
2022-11-20T07:06:49.590Z,83.93
2022-11-20T07:07:51.165Z,84.13
2022-11-20T07:08:53.607Z,84.20
2022-11-20T07:09:55.161Z,84.03
2022-11-20T07:11:01.782Z,84.31
2022-11-20T07:12:03.361Z,84.04
2022-11-20T07:13:04.979Z,83.96
2022-11-20T07:14:06.524Z,83.94
2022-11-20T07:15:08.441Z,83.64
2022-11-20T07:16:10.234Z,83.56
2022-11-20T07:17:12.844Z,83.90
2022-11-20T07:18:14.389Z,83.43
2022-11-20T07:19:15.966Z,83.11
2022-11-20T07:20:17.734Z,82.79
2022-11-20T07:21:19.307Z,83.24
2022-11-20T07:22:22.635Z,83.34
2022-11-20T07:23:24.295Z,83.22
2022-11-20T07:24:25.917Z,82.82
2022-11-20T07:25:28.943Z,82.71
2022-11-20T07:26:30.506Z,82.98
2022-11-20T07:27:32.057Z,83.02
2022-11-20T07:28:34.369Z,82.35
2022-11-20T07:29:35.889Z,81.64
2022-11-20T07:30:37.477Z,82.85
2022-11-20T07:31:39.376Z,82.58
2022-11-20T07:32:40.933Z,81.95
2022-11-20T07:33:42.570Z,81.99
2022-11-20T07:34:44.194Z,81.38
2022-11-20T07:35:46.748Z,81.96
2022-11-20T07:36:48.252Z,81.38
2022-11-20T07:37:49.892Z,81.22
2022-11-20T07:38:51.531Z,81.94
2022-11-20T07:39:53.115Z,81.41
2022-11-20T07:40:56.962Z,81.14
2022-11-20T07:41:58.545Z,80.96
2022-11-20T07:43:00.129Z,81.01
2022-11-20T07:44:02.182Z,81.39
2022-11-20T07:45:04.086Z,81.62
2022-11-20T07:46:05.681Z,81.25
2022-11-20T07:47:07.204Z,80.96
2022-11-20T07:48:08.799Z,81.72
2022-11-20T07:49:10.299Z,81.62
2022-11-20T07:50:12.495Z,80.89
2022-11-20T07:51:14.562Z,81.68
2022-11-20T07:52:16.062Z,80.91
2022-11-20T07:53:21.730Z,80.46
2022-11-20T07:54:24.153Z,80.85
2022-11-20T07:55:25.678Z,80.35
2022-11-20T07:56:27.230Z,81.04
2022-11-20T07:57:28.786Z,80.61
2022-11-20T07:58:31.379Z,80.99
2022-11-20T07:59:32.910Z,81.67
2022-11-20T08:00:34.508Z,81.42
2022-11-20T08:01:36.193Z,80.96
2022-11-20T08:02:39.949Z,81.11
2022-11-20T08:03:41.511Z,81.63
2022-11-20T08:04:43.027Z,80.25
2022-11-20T08:05:44.611Z,80.77
2022-11-20T08:06:46.225Z,80.88
2022-11-20T08:07:48.042Z,80.65
2022-11-20T08:08:49.597Z,80.24
2022-11-20T08:09:51.126Z,80.07
2022-11-20T08:10:52.631Z,79.98
2022-11-20T08:12:12.602Z,80.31
2022-11-20T08:13:32.526Z,80.92
2022-11-20T08:14:34.059Z,81.17
2022-11-20T08:15:36.298Z,80.85
2022-11-20T08:16:37.905Z,80.94
2022-11-20T08:17:39.449Z,80.35
2022-11-20T08:18:40.999Z,81.03
2022-11-20T08:19:42.714Z,80.60
2022-11-20T08:20:44.939Z,81.15
2022-11-20T08:21:46.946Z,80.83
2022-11-20T08:22:48.501Z,81.14
2022-11-20T08:23:50.286Z,81.19
2022-11-20T08:24:51.921Z,81.01
2022-11-20T08:25:53.465Z,81.41
2022-11-20T08:26:55.077Z,81.06
2022-11-20T08:28:12.965Z,80.49
2022-11-20T08:29:20.556Z,80.50
2022-11-20T08:30:22.438Z,81.06
2022-11-20T08:31:25.527Z,79.94
2022-11-20T08:32:27.089Z,79.91
2022-11-20T08:33:29.038Z,80.40
2022-11-20T08:34:30.582Z,81.00
2022-11-20T08:35:36.936Z,80.08
2022-11-20T08:36:38.503Z,81.12
2022-11-20T08:37:42.470Z,81.31
2022-11-20T08:38:51.694Z,81.35
2022-11-20T08:39:54.586Z,80.67
2022-11-20T08:41:19.226Z,81.02
2022-11-20T08:42:20.744Z,81.45
2022-11-20T08:43:22.286Z,81.08
2022-11-20T08:44:23.826Z,81.86
2022-11-20T08:45:28.461Z,81.62
2022-11-20T08:46:38.009Z,81.90
2022-11-20T08:47:39.568Z,81.77
2022-11-20T08:48:41.264Z,81.70
2022-11-20T08:49:42.892Z,82.51
2022-11-20T08:50:44.411Z,81.81
2022-11-20T08:51:46.269Z,82.67
2022-11-20T08:52:47.842Z,81.61
2022-11-20T08:53:52.532Z,82.56
2022-11-20T08:54:54.085Z,81.77
2022-11-20T08:55:55.868Z,82.26
2022-11-20T08:56:57.443Z,81.96
2022-11-20T08:57:59.057Z,81.61
2022-11-20T09:00:22.415Z,81.53
2022-11-20T09:01:24.632Z,82.08
2022-11-20T09:02:26.936Z,82.34
2022-11-20T09:03:32.618Z,82.43
2022-11-20T09:04:34.618Z,81.99
2022-11-20T09:05:36.294Z,81.47
2022-11-20T09:06:37.826Z,81.93
2022-11-20T09:07:39.388Z,81.79
2022-11-20T09:08:41.255Z,81.26
2022-11-20T09:09:42.789Z,80.73
2022-11-20T09:10:44.444Z,81.32
2022-11-20T09:11:46.066Z,80.68
2022-11-20T09:12:50.142Z,80.86
2022-11-20T09:13:51.961Z,80.17
2022-11-20T09:14:55.091Z,80.10
2022-11-20T09:16:01.222Z,80.85
2022-11-20T09:17:02.838Z,81.23
2022-11-20T09:18:05.987Z,80.60
2022-11-20T09:19:36.272Z,81.09
2022-11-20T09:20:30.649Z,81.27
2022-11-20T09:21:32.151Z,81.08
2022-11-20T09:22:33.886Z,79.91
2022-11-20T09:23:36.727Z,81.05
2022-11-20T09:24:38.537Z,80.79
2022-11-20T09:25:40.073Z,80.15
2022-11-20T09:26:41.604Z,79.48
2022-11-20T09:27:45.035Z,79.87
2022-11-20T09:28:46.659Z,79.80
2022-11-20T09:29:48.204Z,79.41
2022-11-20T09:30:49.711Z,79.59
2022-11-20T09:31:51.382Z,79.17
2022-11-20T09:32:53.855Z,78.37
2022-11-20T09:33:55.710Z,77.67
2022-11-20T09:34:57.249Z,78.37
2022-11-20T09:35:58.817Z,77.80
2022-11-20T09:37:03.163Z,77.10
2022-11-20T09:38:10.108Z,78.47
2022-11-20T09:39:11.694Z,77.89
2022-11-20T09:40:25.322Z,77.40
2022-11-20T09:41:53.663Z,78.63
2022-11-20T09:43:10.750Z,77.24
2022-11-20T09:44:40.173Z,77.95
2022-11-20T09:45:56.467Z,78.34
2022-11-20T09:47:09.830Z,77.42
2022-11-20T09:48:58.844Z,77.34
2022-11-20T09:50:34.097Z,76.98
2022-11-20T09:52:00.862Z,77.56
2022-11-20T09:53:25.865Z,77.68
2022-11-20T09:54:32.504Z,78.51
2022-11-20T09:55:37.111Z,78.65
2022-11-20T09:56:42.092Z,77.56
2022-11-20T09:57:49.783Z,77.89
2022-11-20T09:59:03.866Z,77.68
2022-11-20T10:00:12.330Z,77.18
2022-11-20T10:01:17.405Z,78.16
2022-11-20T10:02:25.168Z,77.15
2022-11-20T10:03:42.888Z,78.25
2022-11-20T10:05:13.948Z,77.18
2022-11-20T10:06:19.114Z,77.75
2022-11-20T10:07:32.531Z,77.98
2022-11-20T10:08:45.350Z,78.36
2022-11-20T10:09:55.921Z,78.06
2022-11-20T10:11:07.602Z,77.95
2022-11-20T10:12:36.871Z,78.84
2022-11-20T10:13:58.454Z,78.71
2022-11-20T10:15:18.852Z,79.25
2022-11-20T10:16:29.518Z,79.00
2022-11-20T10:17:57.434Z,78.40
2022-11-20T10:18:58.904Z,79.80
2022-11-20T10:20:35.608Z,79.77
2022-11-20T10:21:40.050Z,80.15
2022-11-20T10:23:09.256Z,80.26
2022-11-20T10:24:35.657Z,80.70
2022-11-20T10:25:55.320Z,81.67
2022-11-20T10:27:24.387Z,81.09
2022-11-20T10:28:52.744Z,81.03
2022-11-20T10:30:14.470Z,81.05
2022-11-20T10:31:29.014Z,81.68
2022-11-20T10:32:43.378Z,81.69
2022-11-20T10:34:11.058Z,81.95
2022-11-20T10:35:14.753Z,81.97
2022-11-20T10:36:27.161Z,82.01
2022-11-20T10:37:32.130Z,81.77
2022-11-20T10:38:54.362Z,82.14
2022-11-20T10:40:19.277Z,82.30
2022-11-20T10:41:47.266Z,82.15
2022-11-20T10:42:57.118Z,81.84
2022-11-20T10:44:13.403Z,82.37
2022-11-20T10:45:29.819Z,82.61
2022-11-20T10:46:41.738Z,82.67
2022-11-20T10:47:43.276Z,82.64
2022-11-20T10:48:46.388Z,82.69
2022-11-20T10:49:52.022Z,83.35
2022-11-20T10:51:32.809Z,83.66
2022-11-20T10:52:42.665Z,83.53
2022-11-20T10:53:48.030Z,82.95
2022-11-20T10:55:10.739Z,83.18
2022-11-20T10:56:28.902Z,83.68
2022-11-20T10:57:56.261Z,83.50
2022-11-20T10:59:03.919Z,83.58
2022-11-20T11:00:07.494Z,83.64
2022-11-20T11:01:17.267Z,82.96
2022-11-20T11:02:32.066Z,83.20
2022-11-20T11:03:33.919Z,83.22
2022-11-20T11:04:45.404Z,82.72
2022-11-20T11:05:55.055Z,82.73
2022-11-20T11:07:06.573Z,83.00
2022-11-20T11:08:14.929Z,83.08
2022-11-20T11:09:22.690Z,82.85
2022-11-20T11:10:52.280Z,82.41
2022-11-20T11:11:53.869Z,82.50
2022-11-20T11:12:55.442Z,82.58
2022-11-20T11:14:14.722Z,82.96
2022-11-20T11:15:29.580Z,82.49
2022-11-20T11:16:31.359Z,83.36
2022-11-20T11:17:35.140Z,83.27
2022-11-20T11:18:36.982Z,82.79
2022-11-20T11:19:38.535Z,82.83
2022-11-20T11:20:50.574Z,82.78
2022-11-20T11:21:57.616Z,81.78
2022-11-20T11:23:00.511Z,82.16
2022-11-20T11:24:27.055Z,82.51
2022-11-20T11:25:37.273Z,82.85
2022-11-20T11:26:38.932Z,83.37
2022-11-20T11:27:48.909Z,83.54
2022-11-20T11:29:01.169Z,84.44
2022-11-20T11:30:17.768Z,84.86
2022-11-20T11:31:27.552Z,85.29
2022-11-20T11:32:29.109Z,85.38
2022-11-20T11:33:34.618Z,86.04
2022-11-20T11:34:36.275Z,85.78
2022-11-20T11:35:58.053Z,86.37
2022-11-20T11:37:01.669Z,86.72
2022-11-20T11:38:13.682Z,86.58
2022-11-20T11:39:18.079Z,86.63
2022-11-20T11:40:24.934Z,87.00
2022-11-20T11:41:36.628Z,88.03
2022-11-20T11:42:45.002Z,88.26
2022-11-20T11:44:14.882Z,88.11
2022-11-20T11:45:18.426Z,87.01
2022-11-20T11:46:22.539Z,87.93
2022-11-20T11:47:42.407Z,87.33
2022-11-20T11:49:15.632Z,87.98
2022-11-20T11:50:21.444Z,88.09
2022-11-20T11:51:23.241Z,87.67
2022-11-20T11:52:26.388Z,87.26
2022-11-20T11:53:30.122Z,86.82
2022-11-20T11:54:58.503Z,87.91
2022-11-20T11:56:09.184Z,87.13
2022-11-20T11:57:17.133Z,87.93
2022-11-20T11:58:37.217Z,88.32
2022-11-20T12:00:00.450Z,88.53
2022-11-20T12:01:05.305Z,88.49
2022-11-20T12:02:23.967Z,89.15
2022-11-20T12:03:36.253Z,89.22
2022-11-20T12:04:50.463Z,89.17
2022-11-20T12:05:59.761Z,90.54
2022-11-20T12:07:45.548Z,89.80
2022-11-20T12:08:55.641Z,90.94
2022-11-20T12:09:58.656Z,91.30
2022-11-20T12:11:44.845Z,91.18
2022-11-20T12:12:53.332Z,92.33
2022-11-20T12:14:02.984Z,92.54
2022-11-20T12:15:05.888Z,93.54
2022-11-20T12:16:13.105Z,94.31
2022-11-20T12:17:15.422Z,94.42
2022-11-20T12:18:21.991Z,94.67
2022-11-20T12:19:23.747Z,95.31
2022-11-20T12:20:33.666Z,96.21
2022-11-20T12:21:50.151Z,95.77
2022-11-20T12:23:00.556Z,95.60
2022-11-20T12:24:14.187Z,95.78
2022-11-20T12:25:19.635Z,95.43
2022-11-20T12:26:32.768Z,94.93
2022-11-20T12:27:43.295Z,94.58
2022-11-20T12:29:01.623Z,95.08
2022-11-20T12:30:12.105Z,94.68
2022-11-20T12:31:36.720Z,95.04
2022-11-20T12:33:13.559Z,95.15
2022-11-20T12:34:32.080Z,94.97
2022-11-20T12:35:49.813Z,95.14
2022-11-20T12:37:06.975Z,95.26
2022-11-20T12:38:33.318Z,94.88
2022-11-20T12:39:44.314Z,95.32
2022-11-20T12:41:01.562Z,95.04
2022-11-20T12:42:56.485Z,95.01
2022-11-20T12:44:52.878Z,95.40
2022-11-20T12:46:06.404Z,95.37
2022-11-20T12:47:25.191Z,95.02
2022-11-20T12:48:26.680Z,94.57
2022-11-20T12:49:38.441Z,94.90
2022-11-20T12:51:00.149Z,95.91
2022-11-20T12:52:27.940Z,95.20
2022-11-20T12:53:58.041Z,95.33
2022-11-20T12:55:22.527Z,95.63
2022-11-20T12:57:04.058Z,95.79
2022-11-20T12:58:31.134Z,96.41
2022-11-20T12:59:50.104Z,97.11
2022-11-20T13:01:09.648Z,96.82
2022-11-20T13:02:20.042Z,96.31
2022-11-20T13:03:42.603Z,96.43
2022-11-20T13:05:12.008Z,96.19
2022-11-20T13:06:18.310Z,94.36
2022-11-20T13:07:22.433Z,94.40
2022-11-20T13:08:27.506Z,93.79
2022-11-20T13:09:30.080Z,93.74
2022-11-20T13:10:45.689Z,93.11
2022-11-20T13:12:14.790Z,93.52
2022-11-20T13:13:43.254Z,92.94
2022-11-20T13:14:57.394Z,92.25
2022-11-20T13:16:17.890Z,90.29
2022-11-20T13:17:36.518Z,88.22
2022-11-20T13:18:42.715Z,88.36
2022-11-20T13:19:53.916Z,88.66
2022-11-20T13:20:55.430Z,87.60
2022-11-20T13:21:56.991Z,88.32
2022-11-20T13:22:59.763Z,88.79
2022-11-20T13:24:21.459Z,89.55
2022-11-20T13:25:27.010Z,89.23
2022-11-20T13:26:29.026Z,88.78
2022-11-20T13:27:32.032Z,87.83
2022-11-20T13:28:33.954Z,87.78
2022-11-20T13:29:37.785Z,87.92
2022-11-20T13:30:52.145Z,88.02
2022-11-20T13:32:14.909Z,88.05
2022-11-20T13:33:36.399Z,86.70
2022-11-20T13:34:38.097Z,87.22
2022-11-20T13:35:43.875Z,86.79
2022-11-20T13:36:56.707Z,86.82
2022-11-20T13:38:08.583Z,87.17
2022-11-20T13:39:10.299Z,88.16
2022-11-20T13:40:12.156Z,87.57
2022-11-20T13:41:28.763Z,88.17
2022-11-20T13:42:30.931Z,88.36
2022-11-20T13:43:41.341Z,88.40
2022-11-20T13:44:51.797Z,87.60
2022-11-20T13:45:59.275Z,87.62
2022-11-20T13:47:00.975Z,87.85
2022-11-20T13:48:20.931Z,87.70
2022-11-20T13:49:34.210Z,87.24
2022-11-20T13:50:39.025Z,87.29
2022-11-20T13:51:52.615Z,87.69
2022-11-20T13:53:03.058Z,86.35
2022-11-20T13:54:28.875Z,86.76
2022-11-20T13:55:45.801Z,86.15
2022-11-20T13:57:02.398Z,85.93
2022-11-20T13:58:07.018Z,84.71
2022-11-20T13:59:34.450Z,85.08
2022-11-20T14:00:45.894Z,83.99
2022-11-20T14:01:47.790Z,81.93
2022-11-20T14:03:18.290Z,82.14
2022-11-20T14:04:28.090Z,81.60
2022-11-20T14:05:35.808Z,82.22
2022-11-20T14:06:44.644Z,81.46
2022-11-20T14:07:46.683Z,81.30
2022-11-20T14:08:50.436Z,81.42
2022-11-20T14:09:57.686Z,80.37
2022-11-20T14:11:29.487Z,80.87
2022-11-20T14:12:33.885Z,81.14
2022-11-20T14:13:35.523Z,81.21
2022-11-20T14:14:38.054Z,81.11
2022-11-20T14:15:44.838Z,81.57